Time;durP1;ratioP1;P1;durP2;ratioP2;P2;SDS_P1;SDS_P2;PMS_P1;PMS_P2;Temp;Humidity;BMP_temperature;BMP_pressure;BME280_temperature;BME280_humidity;BME280_pressure;Samples;Min_cycle;Max_cycle;Signal;HPM_P1;HPM_P2
2023/07/04 00:01:15;;;;;;;18.12;9.85;;;;;;;15.58;57.88;99888.82;1760637;81;27252;-55
2023/07/04 00:03:45;;;;;;;13.32;7.65;;;;;;;15.57;57.84;99895.44;1760354;81;25375;-54
2023/07/04 00:06:21;;;;;;;16.80;8.75;;;;;;;15.57;57.92;99899.52;1760467;81;25520;-54
2023/07/04 00:08:46;;;;;;;15.40;8.30;;;;;;;15.58;58.27;99897.00;1759163;81;25645;-54
2023/07/04 00:11:13;;;;;;;18.27;9.18;;;;;;;15.59;58.41;99902.68;1760501;81;25377;-54
2023/07/04 00:13:41;;;;;;;22.10;10.10;;;;;;;15.58;58.46;99903.81;1760528;81;27320;-53
2023/07/04 00:16:13;;;;;;;19.62;10.05;;;;;;;15.54;57.96;99904.31;1760401;81;25688;-50
2023/07/04 00:18:41;;;;;;;17.45;8.28;;;;;;;15.53;58.38;99908.16;1734903;81;25487;-50
2023/07/04 00:21:14;;;;;;;15.75;8.10;;;;;;;15.50;58.32;99895.47;1760396;81;27883;-50
2023/07/04 00:23:47;;;;;;;20.12;8.18;;;;;;;15.52;58.68;99906.02;1734489;81;25426;-52
2023/07/04 00:26:18;;;;;;;17.32;8.23;;;;;;;15.52;58.99;99901.15;1760490;81;27215;-54
2023/07/04 00:28:46;;;;;;;20.20;9.18;;;;;;;15.49;58.91;99898.55;1734740;81;25706;-51
2023/07/04 00:31:17;;;;;;;21.70;9.13;;;;;;;15.47;58.89;99909.01;1760505;81;25376;-51
2023/07/04 00:33:46;;;;;;;24.43;9.45;;;;;;;15.45;59.22;99910.72;1760443;81;25612;-50
2023/07/04 00:36:16;;;;;;;15.23;8.50;;;;;;;15.47;59.18;99924.78;1760778;81;25383;-52
2023/07/04 00:38:48;;;;;;;18.17;8.60;;;;;;;15.45;59.69;99926.29;1760588;81;27264;-51
2023/07/04 00:41:23;;;;;;;19.57;9.50;;;;;;;15.45;59.80;99924.92;1736184;81;25338;-53
2023/07/04 00:44:01;;;;;;;17.25;8.90;;;;;;;15.42;59.68;99916.86;1761003;81;25478;-52
2023/07/04 00:46:43;;;;;;;15.68;8.28;;;;;;;15.45;59.90;99920.26;1760588;81;26342;-51
2023/07/04 00:49:26;;;;;;;23.85;9.98;;;;;;;15.50;60.09;99920.58;1760507;81;25312;-50
2023/07/04 00:52:04;;;;;;;18.27;8.88;;;;;;;15.52;60.08;99922.38;1760480;81;27306;-51
2023/07/04 00:54:42;;;;;;;17.12;9.08;;;;;;;15.57;60.35;99917.23;1738291;80;25304;-50
2023/07/04 00:57:10;;;;;;;22.55;9.50;;;;;;;15.59;60.36;99918.45;1760515;81;25330;-50
2023/07/04 00:59:45;;;;;;;18.32;9.35;;;;;;;15.64;60.19;99921.50;1760472;81;25625;-51
2023/07/04 01:02:17;;;;;;;20.62;9.83;;;;;;;15.66;60.33;99924.66;1761735;81;25632;-53
2023/07/04 01:04:47;;;;;;;18.95;9.30;;;;;;;15.69;60.56;99927.47;1766393;81;27231;-52
2023/07/04 01:07:45;;;;;;;21.93;11.60;;;;;;;15.71;60.25;99920.88;1766263;81;25499;-52
2023/07/04 01:10:27;;;;;;;20.08;10.13;;;;;;;15.73;60.29;99925.41;1765741;81;25455;-53
2023/07/04 01:12:54;;;;;;;22.73;10.90;;;;;;;15.74;60.50;99931.09;1766501;80;25632;-54
2023/07/04 01:15:23;;;;;;;22.22;9.85;;;;;;;15.74;60.57;99927.00;1766450;80;25360;-51
2023/07/04 01:17:53;;;;;;;14.18;9.28;;;;;;;15.73;60.55;99924.83;1766540;81;27202;-50
2023/07/04 01:20:21;;;;;;;20.27;9.70;;;;;;;15.73;60.78;99928.91;1765796;80;25475;-51
2023/07/04 01:23:08;;;;;;;16.30;9.55;;;;;;;15.76;60.88;99930.19;1766400;80;25521;-50
2023/07/04 01:25:53;;;;;;;17.70;10.00;;;;;;;15.78;60.95;99931.98;1766110;80;25682;-53
2023/07/04 01:28:21;;;;;;;23.98;10.63;;;;;;;15.81;60.99;99936.73;1766537;81;25301;-53
2023/07/04 01:30:48;;;;;;;17.30;10.38;;;;;;;15.82;61.16;99934.25;1753362;81;27089;-52
2023/07/04 01:33:16;;;;;;;26.02;10.13;;;;;;;15.83;60.88;99935.81;1766492;80;25469;-53
2023/07/04 01:35:43;;;;;;;20.02;9.58;;;;;;;15.84;60.77;99930.01;1766589;80;25304;-51
2023/07/04 01:38:11;;;;;;;17.50;10.30;;;;;;;15.84;61.04;99927.28;1766566;81;26508;-55
2023/07/04 01:40:38;;;;;;;16.87;9.53;;;;;;;15.87;61.08;99925.80;1766596;81;25329;-52
2023/07/04 01:43:06;;;;;;;23.60;10.85;;;;;;;15.87;61.35;99923.07;1766556;80;27137;-52
2023/07/04 01:45:33;;;;;;;25.27;10.75;;;;;;;15.89;61.22;99929.53;1753236;81;25547;-52
2023/07/04 01:48:00;;;;;;;19.55;10.23;;;;;;;15.90;61.28;99927.02;1766500;81;25458;-51
2023/07/04 01:50:28;;;;;;;20.75;11.18;;;;;;;15.90;61.36;99931.10;1766552;81;26285;-53
2023/07/04 01:52:55;;;;;;;20.82;11.08;;;;;;;15.89;61.23;99931.69;1766553;81;25474;-52
2023/07/04 01:55:23;;;;;;;21.35;11.38;;;;;;;15.90;61.57;99933.83;1766525;81;27255;-51
2023/07/04 01:57:50;;;;;;;19.92;10.43;;;;;;;15.87;61.29;99936.12;1753097;81;25465;-52
2023/07/04 02:00:22;;;;;;;24.82;11.83;;;;;;;15.87;61.33;99929.30;1766569;80;25429;-51
2023/07/04 02:02:48;;;;;;;21.82;10.58;;;;;;;15.89;61.24;99932.27;1764413;80;25677;-51
2023/07/04 02:05:19;;;;;;;18.75;10.38;;;;;;;15.91;61.61;99935.42;1760646;80;25380;-51
2023/07/04 02:07:46;;;;;;;25.55;11.28;;;;;;;15.92;61.60;99943.25;1760489;80;27195;-51
2023/07/04 02:10:13;;;;;;;27.00;12.78;;;;;;;15.90;61.60;99940.65;1760805;81;25296;-51
2023/07/04 02:12:41;;;;;;;21.48;10.78;;;;;;;15.87;61.42;99941.58;1760629;81;25464;-52
2023/07/04 02:15:09;;;;;;;18.42;9.48;;;;;;;15.88;61.58;99939.63;1745345;81;25866;-52
2023/07/04 02:17:37;;;;;;;20.77;10.60;;;;;;;15.89;61.86;99936.35;1745821;81;25395;-53
2023/07/04 02:20:06;;;;;;;23.70;11.57;;;;;;;15.86;61.67;99942.71;1760571;80;27194;-51
2023/07/04 02:22:33;;;;;;;23.92;10.35;;;;;;;15.86;61.76;99939.98;1760622;81;25507;-52
2023/07/04 02:25:02;;;;;;;18.70;9.73;;;;;;;15.85;61.79;99942.51;1760553;80;25527;-54
2023/07/04 02:27:30;;;;;;;20.32;11.03;;;;;;;15.86;61.99;99944.08;1760628;80;25711;-51
2023/07/04 02:29:57;;;;;;;18.12;10.68;;;;;;;15.86;62.17;99941.34;1745507;81;25497;-53
2023/07/04 02:32:24;;;;;;;22.32;10.98;;;;;;;15.86;62.04;99943.30;1734769;81;27170;-52
2023/07/04 02:34:53;;;;;;;20.40;10.58;;;;;;;15.85;62.14;99934.88;1760499;81;25523;-54
2023/07/04 02:37:20;;;;;;;20.27;10.43;;;;;;;15.85;62.09;99938.97;1760780;81;25862;-54
2023/07/04 02:39:49;;;;;;;19.23;10.30;;;;;;;15.85;62.27;99937.05;1760468;81;27929;-52
2023/07/04 02:42:17;;;;;;;17.92;10.15;;;;;;;15.88;62.12;99935.55;1760689;81;32782;-54
2023/07/04 02:44:44;;;;;;;23.75;12.33;;;;;;;15.90;62.49;99944.16;1735048;81;27321;-51
2023/07/04 02:47:12;;;;;;;18.42;10.45;;;;;;;15.90;62.46;99943.38;1760475;81;25550;-54
2023/07/04 02:49:39;;;;;;;24.23;11.08;;;;;;;15.91;62.44;99949.06;1760552;81;25465;-54
2023/07/04 02:52:07;;;;;;;18.57;10.65;;;;;;;15.91;62.56;99944.97;1760577;81;26249;-53
2023/07/04 02:54:35;;;;;;;17.82;11.00;;;;;;;15.89;62.62;99946.69;1760787;81;25357;-53
2023/07/04 02:57:03;;;;;;;22.48;11.63;;;;;;;15.87;62.69;99940.22;1760506;81;27262;-55
2023/07/04 02:59:30;;;;;;;19.52;10.40;;;;;;;15.85;62.80;99937.05;1735191;81;25593;-51
2023/07/04 03:01:57;;;;;;;26.77;13.65;;;;;;;15.86;62.74;99941.34;1760454;81;25467;-56
2023/07/04 03:04:24;;;;;;;21.68;12.07;;;;;;;15.90;62.90;99942.01;1760465;81;25641;-54
2023/07/04 03:06:52;;;;;;;24.45;12.85;;;;;;;15.87;62.95;99948.98;1760600;81;25371;-51
2023/07/04 03:09:19;;;;;;;23.45;12.30;;;;;;;15.85;63.14;99947.97;1760549;81;27816;-52
2023/07/04 03:11:46;;;;;;;21.42;13.55;;;;;;;15.84;63.35;99944.22;1760415;81;27286;-52
2023/07/04 03:14:13;;;;;;;23.90;14.47;;;;;;;15.85;63.11;99949.88;1760545;81;25503;-51
2023/07/04 03:16:40;;;;;;;20.68;11.53;;;;;;;15.84;63.10;99944.22;1760478;81;27739;-54
2023/07/04 03:19:08;;;;;;;26.95;24.15;;;;;;;15.82;63.41;99944.58;1760601;81;25331;-53
2023/07/04 03:21:35;;;;;;;22.65;13.58;;;;;;;15.81;63.51;99944.34;1760519;81;27233;-53
2023/07/04 03:24:02;;;;;;;23.92;12.25;;;;;;;15.82;63.52;99951.97;1760496;81;25324;-52
2023/07/04 03:26:29;;;;;;;20.25;12.65;;;;;;;15.85;63.68;99961.59;1734899;81;25559;-53
2023/07/04 03:28:56;;;;;;;21.30;12.13;;;;;;;15.86;64.10;99955.56;1760465;81;25650;-52
2023/07/04 03:31:23;;;;;;;21.93;12.33;;;;;;;15.86;63.87;99960.44;1760543;81;25554;-52
2023/07/04 03:33:50;;;;;;;24.90;12.80;;;;;;;15.86;64.15;99962.37;1760566;81;27125;-54
2023/07/04 03:36:19;;;;;;;23.07;12.28;;;;;;;15.89;64.11;99961.69;1760440;81;25482;-52
2023/07/04 03:38:46;;;;;;;25.35;13.00;;;;;;;15.93;63.95;99961.19;1760766;81;25525;-51
2023/07/04 03:41:13;;;;;;;22.45;12.58;;;;;;;15.98;63.73;99966.38;1760511;81;26311;-52
2023/07/04 03:43:40;;;;;;;25.62;12.58;;;;;;;16.03;63.77;99963.95;1760506;81;25469;-52
2023/07/04 03:46:07;;;;;;;24.27;12.88;;;;;;;16.07;63.68;99960.73;1760492;81;29478;-52
2023/07/04 03:48:35;;;;;;;23.95;13.00;;;;;;;16.10;63.41;99958.66;1760368;81;27310;-51
2023/07/04 03:51:02;;;;;;;25.82;12.40;;;;;;;16.10;63.18;99957.30;1760474;81;25497;-51
2023/07/04 03:53:30;;;;;;;20.12;12.50;;;;;;;16.13;63.12;99951.72;1760422;81;25631;-50
2023/07/04 03:55:57;;;;;;;23.65;13.62;;;;;;;16.19;63.53;99952.45;1760493;81;25355;-51
2023/07/04 03:58:25;;;;;;;20.77;12.68;;;;;;;16.22;63.53;99950.36;1760530;81;27806;-52
2023/07/04 04:00:52;;;;;;;22.37;12.58;;;;;;;16.31;63.74;99946.09;1760479;81;25375;-51
2023/07/04 04:03:19;;;;;;;29.87;14.18;;;;;;;16.37;63.64;99947.38;1760380;81;25756;-52
2023/07/04 04:05:46;;;;;;;25.17;14.00;;;;;;;16.41;63.23;99944.17;1760473;81;25803;-53
2023/07/04 04:08:13;;;;;;;22.90;13.00;;;;;;;16.46;63.44;99944.45;1760525;81;25437;-51
2023/07/04 04:10:40;;;;;;;20.65;12.95;;;;;;;16.52;63.26;99942.25;1760505;81;27420;-51
2023/07/04 04:13:09;;;;;;;19.52;12.70;;;;;;;16.56;63.25;99942.52;1734731;81;25354;-51
2023/07/04 04:15:36;;;;;;;25.62;13.15;;;;;;;16.61;63.41;99940.87;1760775;81;25524;-54
2023/07/04 04:18:03;;;;;;;23.98;12.90;;;;;;;16.66;63.43;99949.36;1760404;81;25619;-51
2023/07/04 04:20:30;;;;;;;23.87;12.95;;;;;;;16.68;63.33;99955.83;1760621;81;25481;-52
2023/07/04 04:22:58;;;;;;;24.85;13.20;;;;;;;16.66;63.34;99953.45;1760518;81;27237;-50
2023/07/04 04:25:26;;;;;;;24.63;13.53;;;;;;;16.62;63.46;99955.33;1760710;81;25494;-52
2023/07/04 04:27:53;;;;;;;24.92;13.05;;;;;;;16.60;63.37;99958.42;1760510;81;25328;-53
2023/07/04 04:30:21;;;;;;;21.73;13.05;;;;;;;16.58;63.46;99951.17;1760499;81;26221;-52
2023/07/04 04:32:49;;;;;;;29.07;13.05;;;;;;;16.62;63.60;99962.16;1760569;81;25281;-51
2023/07/04 04:35:17;;;;;;;30.92;13.75;;;;;;;16.70;63.64;99968.55;1760416;81;27255;-51
2023/07/04 04:37:44;;;;;;;21.95;13.08;;;;;;;16.76;63.77;99970.64;1760497;81;25461;-50
2023/07/04 04:40:12;;;;;;;25.50;12.78;;;;;;;16.83;63.83;99977.41;1760539;81;25543;-50
2023/07/04 04:42:43;;;;;;;22.27;11.93;;;;;;;16.89;63.69;99977.35;1760582;81;25655;-49
2023/07/04 04:45:11;;;;;;;;;;;;;;;16.98;63.66;99982.05;1762816;81;25454;-56
2023/07/04 04:47:56;;;;;;;25.12;12.50;;;;;;;17.09;63.63;99989.08;1758802;81;27312;-56
2023/07/04 04:50:27;;;;;;;20.90;11.70;;;;;;;17.19;63.50;99988.49;1760528;81;25538;-55
2023/07/04 04:52:54;;;;;;;23.22;11.38;;;;;;;17.33;63.11;99989.34;1760497;81;25310;-55
2023/07/04 04:55:21;;;;;;;21.82;10.98;;;;;;;17.43;62.85;99981.91;1760418;81;25677;-54
2023/07/04 04:57:48;;;;;;;21.77;10.03;;;;;;;17.53;62.84;99988.14;1760601;81;25535;-55
2023/07/04 05:00:17;;;;;;;23.65;11.15;;;;;;;17.66;62.52;99992.09;1760790;81;27319;-54
2023/07/04 05:02:45;;;;;;;21.42;11.25;;;;;;;17.75;62.13;99987.16;1761045;81;25189;-55
2023/07/04 05:05:13;;;;;;;21.80;10.60;;;;;;;17.86;61.84;99985.97;1710416;82;25568;-55
2023/07/04 05:07:41;;;;;;;18.27;10.48;;;;;;;17.99;61.70;99993.45;1724383;83;25685;-52
2023/07/04 05:10:10;;;;;;;20.50;9.93;;;;;;;18.09;61.14;99990.09;1724430;83;25548;-51
2023/07/04 05:12:38;;;;;;;21.07;9.93;;;;;;;18.19;60.87;99992.20;1730500;82;27194;-52
2023/07/04 05:15:08;;;;;;;20.50;9.45;;;;;;;18.31;60.39;99985.73;1724413;83;25492;-52
2023/07/04 05:17:35;;;;;;;20.10;9.40;;;;;;;18.42;60.31;99994.09;1707141;82;25413;-55
2023/07/04 05:20:05;;;;;;;21.65;8.93;;;;;;;18.52;60.29;99987.20;1724372;83;25677;-52
2023/07/04 05:22:33;;;;;;;22.45;14.55;;;;;;;18.60;59.80;99995.13;1680980;83;25401;-54
2023/07/04 05:25:00;;;;;;;64.65;60.12;;;;;;;18.69;59.48;100000.92;1724661;83;27258;-55
2023/07/04 05:27:27;;;;;;;28.17;20.02;;;;;;;18.78;58.89;100002.23;1724264;83;25326;-55
2023/07/04 05:29:55;;;;;;;17.77;7.58;;;;;;;18.87;58.43;100002.56;1724427;82;25409;-52
2023/07/04 05:32:22;;;;;;;22.80;18.15;;;;;;;18.97;58.44;100009.55;1720995;83;25600;-52
2023/07/04 05:34:50;;;;;;;15.68;8.50;;;;;;;19.10;59.03;100014.19;1721046;83;25538;-55
2023/07/04 05:37:17;;;;;;;15.43;7.80;;;;;;;19.25;59.01;100009.66;1721032;83;27254;-54
2023/07/04 05:39:45;;;;;;;17.55;7.87;;;;;;;19.39;58.09;100016.69;1721014;83;25337;-53
2023/07/04 05:42:12;;;;;;;17.62;7.42;;;;;;;19.52;57.95;100015.05;1721044;83;25341;-55
2023/07/04 05:44:39;;;;;;;20.12;8.70;;;;;;;19.66;57.06;100025.38;1721031;83;25555;-55
2023/07/04 05:47:07;;;;;;;16.62;7.25;;;;;;;19.74;56.22;100024.28;1721046;83;25425;-55
2023/07/04 05:49:34;;;;;;;15.28;6.90;;;;;;;19.81;55.80;100023.59;1721038;83;27279;-52
2023/07/04 05:52:02;;;;;;;17.77;9.73;;;;;;;19.87;55.52;100017.38;1698184;83;25410;-55
2023/07/04 05:54:29;;;;;;;74.42;69.45;;;;;;;19.92;55.17;100022.52;1730363;82;25539;-55
2023/07/04 05:56:57;;;;;;;74.05;68.97;;;;;;;20.01;54.61;100022.79;1724336;83;25697;-53
2023/07/04 05:59:25;;;;;;;77.62;72.47;;;;;;;20.09;54.79;100021.66;1724403;82;25370;-54
2023/07/04 06:01:53;;;;;;;15.68;6.83;;;;;;;20.19;53.95;100028.41;1724411;82;27214;-53
2023/07/04 06:04:20;;;;;;;16.73;7.20;;;;;;;20.27;53.54;100024.55;1722848;82;25491;-52
2023/07/04 06:06:53;;;;;;;17.35;7.08;;;;;;;20.36;53.65;100026.37;1720795;83;25344;-53
2023/07/04 06:09:22;;;;;;;21.20;7.58;;;;;;;20.48;53.21;100031.58;1720760;83;25708;-55
2023/07/04 06:11:50;;;;;;;15.35;7.15;;;;;;;20.57;52.94;100029.86;1700030;83;25412;-54
2023/07/04 06:14:26;;;;;;;77.70;72.35;;;;;;;20.66;52.52;100034.44;1720767;83;27948;-55
2023/07/04 06:16:55;;;;;;;13.65;6.33;;;;;;;20.74;52.17;100027.04;1720690;83;25337;-53
2023/07/04 06:19:24;;;;;;;43.92;40.17;;;;;;;20.86;52.18;100025.92;1720884;83;25492;-56
2023/07/04 06:21:52;;;;;;;23.22;15.83;;;;;;;20.96;51.54;100025.19;1720872;83;26216;-56
2023/07/04 06:24:20;;;;;;;72.27;67.60;;;;;;;21.07;51.44;100032.88;1692392;84;25319;-54
2023/07/04 06:26:49;;;;;;;76.35;70.45;;;;;;;21.19;50.80;100028.98;1721037;83;27197;-52
2023/07/04 06:29:16;;;;;;;75.70;70.80;;;;;;;21.31;50.21;100034.73;1721144;83;25514;-55
2023/07/04 06:31:43;;;;;;;75.03;70.03;;;;;;;21.39;49.72;100032.80;1721039;83;25491;-55
2023/07/04 06:34:12;;;;;;;15.78;5.20;;;;;;;21.49;48.78;100027.13;1720961;83;25673;-52
2023/07/04 06:36:40;;;;;;;75.85;70.25;;;;;;;21.58;49.27;100024.21;1721177;83;25393;-55
2023/07/04 06:39:08;;;;;;;22.22;18.27;;;;;;;21.70;48.43;100028.56;1698364;83;27049;-54
2023/07/04 06:41:35;;;;;;;75.37;70.52;;;;;;;21.82;48.54;100030.92;1720960;83;25328;-54
2023/07/04 06:44:02;;;;;;;48.60;44.80;;;;;;;21.98;48.56;100033.31;1698289;83;25512;-55
2023/07/04 06:46:29;;;;;;;73.12;68.15;;;;;;;22.15;48.64;100028.18;1720980;83;25605;-54
2023/07/04 07:32:39;;;;;;;71.28;66.72;;;;;;;24.48;39.84;100038.69;1743670;80;25351;-57
2023/07/04 07:35:07;;;;;;;69.27;65.03;;;;;;;24.68;38.45;100029.23;1739459;81;25633;-56
2023/07/04 07:37:34;;;;;;;12.58;4.97;;;;;;;24.80;38.63;100021.78;1739596;81;25485;-54
2023/07/04 07:40:03;;;;;;;68.22;63.70;;;;;;;24.89;36.97;100028.80;1739476;82;27264;-56
2023/07/04 07:42:32;;;;;;;69.05;64.90;;;;;;;24.94;37.18;100020.05;1739549;81;25618;-57
2023/07/04 07:44:59;;;;;;;37.33;34.30;;;;;;;25.06;36.08;100024.25;1739631;82;25378;-57
2023/07/04 07:47:27;;;;;;;70.85;65.50;;;;;;;25.16;35.23;100026.90;1739466;82;25779;-54
2023/07/04 07:49:54;;;;;;;68.42;63.92;;;;;;;25.29;36.40;100025.75;1739500;80;25321;-56
2023/07/04 07:52:23;;;;;;;12.98;6.35;;;;;;;25.43;35.74;100021.22;1739425;82;27189;-52
2023/07/04 07:54:50;;;;;;;10.70;5.67;;;;;;;25.51;34.88;100024.86;1739654;82;25382;-56
2023/07/04 07:57:17;;;;;;;36.88;34.05;;;;;;;25.52;34.90;100027.02;1739501;81;25398;-57
2023/07/04 07:59:44;;;;;;;52.48;48.48;;;;;;;25.58;34.51;100019.03;1739455;82;26370;-57
2023/07/04 08:02:14;;;;;;;8.50;5.03;;;;;;;25.66;34.49;100026.02;1739483;82;25559;-56
2023/07/04 08:04:41;;;;;;;13.13;5.83;;;;;;;25.75;33.64;100024.90;1739463;82;27178;-56
2023/07/04 08:07:10;;;;;;;15.32;9.25;;;;;;;25.79;34.25;100014.53;1672347;82;25562;-54
2023/07/04 08:09:37;;;;;;;60.80;56.65;;;;;;;25.91;34.20;100000.11;1707449;84;25368;-56
2023/07/04 08:12:05;;;;;;;71.75;67.17;;;;;;;26.17;33.02;100005.23;1707454;84;25835;-56
2023/07/04 08:14:33;;;;;;;65.67;61.55;;;;;;;26.27;34.23;100007.03;1707760;84;25397;-56
2023/07/04 08:17:00;;;;;;;68.22;63.80;;;;;;;26.61;34.07;100010.97;1707453;84;27214;-56
2023/07/04 08:19:27;;;;;;;66.10;61.85;;;;;;;26.74;32.33;100021.45;1707351;84;25492;-55
2023/07/04 08:21:54;;;;;;;37.78;34.92;;;;;;;26.75;32.70;100003.58;1707440;84;25385;-56
2023/07/04 08:24:22;;;;;;;69.77;65.28;;;;;;;26.99;32.91;100005.69;1707445;84;25789;-55
2023/07/04 08:26:54;;;;;;;65.55;61.50;;;;;;;27.32;33.67;100005.18;1707468;84;25583;-56
2023/07/04 08:29:21;;;;;;;67.67;63.45;;;;;;;27.71;33.20;100009.66;1707458;84;27861;-54
2023/07/04 08:31:48;;;;;;;65.62;61.18;;;;;;;28.01;32.12;100015.50;1707365;84;27165;-56
2023/07/04 08:34:16;;;;;;;67.10;63.02;;;;;;;28.08;31.31;100011.77;1707458;84;25566;-55
2023/07/04 08:36:44;;;;;;;67.10;62.67;;;;;;;28.12;31.31;100012.44;1707430;84;25809;-56
2023/07/04 08:39:12;;;;;;;64.80;61.13;;;;;;;28.12;30.34;100013.83;1726491;83;25140;-54
2023/07/04 08:42:02;;;;;;;;;;;;;;;27.93;30.41;100005.16;1717641;83;27204;-55
2023/07/04 08:44:44;;;;;;;64.92;60.70;;;;;;;27.96;30.54;100016.03;1714239;83;25288;-55
2023/07/04 08:47:16;;;;;;;66.35;62.13;;;;;;;27.92;31.09;100009.17;1714480;83;25323;-54
2023/07/04 08:50:09;;;;;;;65.47;61.37;;;;;;;28.13;30.64;100000.12;1714790;83;25635;-51
2023/07/04 08:52:52;;;;;;;64.32;60.33;;;;;;;28.26;30.71;100000.16;1714318;83;25345;-52
2023/07/04 08:55:23;;;;;;;61.88;58.20;;;;;;;28.29;29.90;100003.46;1715232;83;27269;-54
2023/07/04 08:57:56;;;;;;;65.55;61.37;;;;;;;28.30;30.54;99993.30;1727863;83;25618;-51
2023/07/04 09:00:37;;;;;;;62.83;59.15;;;;;;;28.64;31.06;99988.42;1715434;83;25483;-58
2023/07/04 09:03:42;;;;;;;65.95;62.05;;;;;;;28.91;29.91;99988.66;1688182;83;25632;-58
2023/07/04 09:06:41;;;;;;;65.28;60.95;;;;;;;28.96;29.71;99988.91;1728338;83;25290;-55
2023/07/04 09:09:20;;;;;;;63.13;59.18;;;;;;;29.10;29.50;99978.55;1727245;83;27207;-57
2023/07/04 09:11:51;;;;;;;65.52;61.05;;;;;;;29.11;29.07;99984.30;1727985;83;25835;-57
2023/07/04 09:14:33;;;;;;;59.90;56.10;;;;;;;27.89;29.16;99773.80;1714509;83;25503;-55
2023/07/04 09:17:08;;;;;;;64.45;60.55;;;;;;;29.11;28.62;99953.67;1713636;83;25719;-59
2023/07/04 09:19:40;;;;;;;63.00;59.20;;;;;;;29.30;28.63;99976.36;1726838;83;25634;-60
2023/07/04 09:22:09;;;;;;;62.48;58.63;;;;;;;29.32;27.78;99992.03;1713387;83;27303;-54
2023/07/04 09:24:36;;;;;;;63.13;59.27;;;;;;;29.18;28.33;99983.48;1714897;83;25790;-56
2023/07/04 09:27:03;;;;;;;62.43;58.75;;;;;;;29.29;29.31;99984.56;1714931;83;25580;-57
2023/07/04 09:29:31;;;;;;;65.47;61.45;;;;;;;29.56;28.91;99959.65;1728196;82;26882;-54
2023/07/04 09:32:01;;;;;;;;;;;;;;;30.00;27.56;99983.47;1730242;83;25554;-57
2023/07/04 09:34:40;;;;;;;65.47;61.35;;;;;;;30.05;27.51;99971.75;1728259;83;27378;-56
2023/07/04 09:37:20;;;;;;;66.42;62.45;;;;;;;30.40;27.92;99985.71;1714578;83;25607;-57
2023/07/04 09:39:57;;;;;;;61.25;57.25;;;;;;;30.36;26.72;99980.89;1728264;82;25521;-57
2023/07/04 09:42:38;;;;;;;61.80;58.00;;;;;;;30.17;27.76;99938.88;1715208;83;25669;-56
2023/07/04 09:45:11;;;;;;;61.90;58.45;;;;;;;26.07;27.04;99237.48;1728216;83;25490;-56
2023/07/04 09:47:45;;;;;;;63.83;59.77;;;;;;;30.67;27.24;99945.28;1714853;83;27269;-57
2023/07/04 09:50:17;;;;;;;60.12;56.42;;;;;;;31.06;26.69;99968.94;1678437;85;25367;-57
2023/07/04 09:52:45;;;;;;;67.08;62.80;;;;;;;;;;1714200;83;25312;-57
2023/07/04 09:55:16;;;;;;;59.53;55.73;;;;;;;;;;1715143;83;25728;-55
2023/07/04 09:57:44;;;;;;;59.35;55.50;;;;;;;;;;1715304;83;25467;-58
2023/07/04 10:00:26;;;;;;;61.10;57.60;;;;;;;;;;1714906;83;29171;-56
2023/07/04 10:02:57;;;;;;;60.60;56.65;;;;;;;;;;1728802;82;25293;-58
2023/07/04 10:05:32;;;;;;;58.38;54.77;;;;;;;;;;1728345;82;25311;-57
2023/07/04 10:08:09;;;;;;;60.83;57.15;;;;;;;;;;1731834;82;26281;-57
2023/07/04 10:10:44;;;;;;;60.65;57.03;;;;;;;;;;1737512;82;25377;-59
2023/07/04 10:13:13;;;;;;;61.85;58.08;;;;;;;;;;1737506;82;28167;-60
2023/07/04 10:15:43;;;;;;;66.55;61.92;;;;;;;;;;1737364;82;25441;-60
2023/07/04 10:18:29;;;;;;;59.15;55.65;;;;;;;;;;1737529;82;25323;-60
2023/07/04 10:20:58;;;;;;;62.40;58.75;;;;;;;;;;1737420;82;26571;-60
2023/07/04 10:23:27;;;;;;;58.30;54.83;;;;;;;;;;1737543;82;25561;-60
2023/07/04 10:26:00;;;;;;;62.35;58.35;;;;;;;;;;1737430;82;27303;-61
2023/07/04 10:28:29;;;;;;;16.05;14.47;;;;;;;;;;1737384;82;25676;-60
2023/07/04 10:31:07;;;;;;;19.40;17.62;;;;;;;;;;1737427;82;25434;-60
2023/07/04 10:33:55;;;;;;;52.90;49.30;;;;;;;;;;1737568;82;25713;-54
2023/07/04 10:36:31;;;;;;;61.60;57.90;;;;;;;;;;1737725;82;25303;-55
2023/07/04 10:39:01;;;;;;;63.90;59.93;;;;;;;;;;1737448;82;27787;-54
2023/07/04 10:41:48;;;;;;;62.73;58.75;;;;;;;;;;1737341;82;25364;-56
2023/07/04 10:44:21;;;;;;;64.55;60.60;;;;;;;;;;1737442;82;25487;-56
2023/07/04 10:47:00;;;;;;;62.20;58.35;;;;;;;;;;1737227;82;25734;-55
2023/07/04 10:49:30;;;;;;;62.30;58.58;;;;;;;;;;1737510;82;25348;-54
2023/07/04 10:52:01;;;;;;;62.20;58.78;;;;;;;;;;1737461;82;27280;-56
2023/07/04 10:54:28;;;;;;;64.58;60.43;;;;;;;;;;1737343;82;25533;-55
2023/07/04 10:57:02;;;;;;;65.32;61.00;;;;;;;;;;1737442;82;25495;-56
2023/07/04 10:59:32;;;;;;;64.15;60.33;;;;;;;;;;1737415;82;25626;-56
2023/07/04 11:02:06;;;;;;;65.17;61.37;;;;;;;;;;1737463;82;25367;-56
2023/07/04 11:04:37;;;;;;;64.05;60.15;;;;;;;;;;1737539;82;27801;-57
2023/07/04 11:07:17;;;;;;;64.75;60.75;;;;;;;;;;1737256;81;25357;-58
2023/07/04 11:09:46;;;;;;;26.23;24.45;;;;;;;;;;1736634;82;25610;-59
2023/07/04 11:12:17;;;;;;;22.15;20.10;;;;;;;;;;1736325;82;25856;-59
2023/07/04 11:14:46;;;;;;;30.60;28.50;;;;;;;;;;1736013;82;25609;-58
2023/07/04 11:17:19;;;;;;;12.68;11.33;;;;;;;;;;1736800;82;27214;-61
2023/07/04 11:20:13;;;;;;;8.38;5.72;;;;;;;;;;1735983;82;25695;-63
2023/07/04 11:22:57;;;;;;;11.28;5.10;;;;;;;;;;1736242;82;25173;-61
2023/07/04 11:25:31;;;;;;;11.30;5.87;;;;;;;;;;1736744;82;26704;-62
2023/07/04 11:28:18;;;;;;;62.83;59.15;;;;;;;;;;1737504;82;25325;-64
2023/07/04 11:30:49;;;;;;;64.72;60.98;;;;;;;;;;1737157;81;27100;-64
2023/07/04 11:33:38;;;;;;;64.62;60.75;;;;;;;;;;1737253;82;25349;-65
2023/07/04 11:36:09;;;;;;;64.72;60.73;;;;;;;;;;1737489;82;25462;-63
2023/07/04 11:38:47;;;;;;;64.12;60.10;;;;;;;;;;1736833;82;26910;-63
2023/07/04 11:41:19;;;;;;;64.27;60.30;;;;;;;;;;1737452;82;25288;-62
2023/07/04 11:43:48;;;;;;;10.63;9.20;;;;;;;;;;1735666;82;27339;-62
2023/07/04 11:46:22;;;;;;;14.38;9.28;;;;;;;;;;1737193;82;25799;-59
2023/07/04 11:48:53;;;;;;;10.95;9.33;;;;;;;;;;1736085;82;25383;-57
2023/07/04 11:51:24;;;;;;;14.43;6.37;;;;;;;;;;1737339;82;26030;-54
2023/07/04 11:54:01;;;;;;;10.30;5.87;;;;;;;;;;1737334;82;25502;-54
2023/07/04 11:56:35;;;;;;;10.60;5.42;;;;;;;;;;1737274;82;27180;-57
2023/07/04 11:59:20;;;;;;;9.38;5.58;;;;;;;;;;1736989;82;25727;-58
2023/07/04 12:02:03;;;;;;;13.78;6.30;;;;;;;;;;1704161;84;25547;-59
2023/07/04 12:04:35;;;;;;;13.15;6.15;;;;;;;;;;1672311;85;25792;-58
2023/07/04 12:07:09;;;;;;;9.53;6.08;;;;;;;;;;1701276;83;25215;-57
2023/07/04 12:10:03;;;;;;;10.88;6.95;;;;;;;;;;1703752;84;27329;-58
2023/07/04 12:12:37;;;;;;;11.63;6.67;;;;;;;;;;1703994;84;25526;-58
2023/07/04 12:15:10;;;;;;;18.50;6.75;;;;;;;;;;1704056;84;25573;-58
2023/07/04 12:17:41;;;;;;;11.70;6.60;;;;;;;;;;1704046;84;25694;-57
2023/07/04 12:20:18;;;;;;;8.78;6.10;;;;;;;;;;1703333;84;25490;-58
2023/07/04 12:22:54;;;;;;;15.93;7.17;;;;;;;;;;1704023;84;27210;-57
2023/07/04 12:25:26;;;;;;;10.72;6.87;;;;;;;;;;1704056;84;25493;-61
2023/07/04 12:27:59;;;;;;;12.20;6.95;;;;;;;;;;1703398;84;25306;-57
2023/07/04 12:30:26;;;;;;;12.50;8.05;;;;;;;;;;1704079;84;25630;-57
2023/07/04 12:32:53;;;;;;;14.43;7.53;;;;;;;;;;1704112;84;25539;-57
2023/07/04 12:35:31;;;;;;;8.40;6.35;;;;;;;;;;1704067;84;27287;-57
2023/07/04 12:38:03;;;;;;;11.40;6.17;;;;;;;;;;1704124;84;25529;-55
2023/07/04 12:40:34;;;;;;;11.50;6.78;;;;;;;;;;1703047;84;25517;-56
2023/07/04 12:43:03;;;;;;;9.03;6.28;;;;;;;;;;1698488;84;25647;-57
2023/07/04 12:45:31;;;;;;;11.48;6.30;;;;;;;;;;1698515;84;25414;-57
2023/07/04 12:48:07;;;;;;;13.38;7.67;;;;;;;;;;1698487;84;27540;-55
2023/07/04 12:50:39;;;;;;;13.43;7.22;;;;;;;;;;1698447;84;25553;-55
2023/07/04 12:53:10;;;;;;;9.15;6.33;;;;;;;;;;1698556;84;25327;-54
2023/07/04 12:55:41;;;;;;;12.80;7.40;;;;;;;;;;1698421;84;27692;-60
2023/07/04 12:58:13;;;;;;;9.53;7.28;;;;;;;;;;1698586;84;25526;-60